This is the latest recevied weather packets stored in our database for station/object N0KTA-2. If no packets are shown the sender has not sent any weather packets the latest 10 day(s).
| Time | Temp. | Humidity | Pressure | Rain* | Wind** | Luminosity | Snow |
|---|---|---|---|---|---|---|---|
| 1788023302 | 33.33° C | 45% | 1010.2 hPa | 0 mm | - | - | - |
| 1788022703 | 32.78° C | 47% | 1010.3 hPa | 0 mm | - | - | - |
| 1788022102 | 32.22° C | 49% | 1010.4 hPa | 0 mm | - | - | - |
| 1788021503 | 31.11° C | 50% | 1010.6 hPa | 0 mm | - | - | - |
| 1788020902 | 30° C | 53% | 1010.7 hPa | 0 mm | - | - | - |
| 1788020301 | 29.44° C | 54% | 1010.7 hPa | 0 mm | - | - | - |
| 1788019702 | 29.44° C | 54% | 1010.9 hPa | 0 mm | - | - | - |
| 1788019102 | 28.89° C | 55% | 1010.9 hPa | 0 mm | - | - | - |
| 1788018501 | 28.89° C | 54% | 1010.9 hPa | 0 mm | - | - | - |
| 1788017903 | 28.33° C | 55% | 1011 hPa | 0 mm | - | - | - |
| 1788017302 | 28.33° C | 55% | 1011.1 hPa | 0 mm | - | - | - |
| 1788016701 | 28.33° C | 55% | 1011.1 hPa | 0 mm | - | - | - |
| 1788016102 | 27.78° C | 56% | 1011.1 hPa | 0 mm | - | - | - |
| 1788015501 | 27.78° C | 56% | 1011.1 hPa | 0 mm | - | - | - |
| 1788014902 | 27.22° C | 57% | 1011.2 hPa | 0 mm | - | - | - |
| 1788014301 | 26.67° C | 60% | 1011.4 hPa | 0 mm | - | - | - |
| 1788013703 | 25.56° C | 60% | 1011.6 hPa | 0 mm | - | - | - |
| 1788013103 | 25° C | 60% | 1011.7 hPa | 0 mm | - | - | - |
| 1788012504 | 25° C | 60% | 1011.7 hPa | 0 mm | - | - | - |
| 1788011904 | 24.44° C | 61% | 1011.8 hPa | 0 mm | - | - | - |
| 1788011303 | 24.44° C | 60% | 1011.8 hPa | 0 mm | - | - | - |
| 1788010703 | 23.89° C | 61% | 1011.8 hPa | 0 mm | - | - | - |
| 1788010102 | 23.89° C | 60% | 1011.8 hPa | 0 mm | - | - | - |
| 1788009503 | 23.89° C | 60% | 1011.7 hPa | 0 mm | - | - | - |
| 1788008904 | 23.33° C | 60% | 1011.7 hPa | 0 mm | - | - | - |
* Rain latest hour (hover to see other rain measurements)
** Current wind speed in m/s (hover to see current wind gust speed)